createdAt,value
2022-10-09T00:01:23.674Z,3.80
2022-10-09T00:06:30.766Z,4.30
2022-10-09T00:11:35.608Z,7.55
2022-10-09T00:16:39.118Z,5.80
2022-10-09T00:21:44.247Z,6.45
2022-10-09T00:26:49.174Z,5.43
2022-10-09T00:31:53.060Z,8.85
2022-10-09T00:36:57.833Z,9.25
2022-10-09T00:42:01.663Z,11.23
2022-10-09T00:47:05.478Z,8.65
2022-10-09T00:52:10.438Z,7.35
2022-10-09T00:57:14.215Z,7.97
2022-10-09T01:02:17.730Z,9.63
2022-10-09T01:07:31.285Z,10.68
2022-10-09T01:12:47.063Z,10.63
2022-10-09T01:17:58.463Z,8.75
2022-10-09T01:23:29.623Z,9.48
2022-10-09T01:28:36.766Z,6.20
2022-10-09T01:33:40.550Z,4.97
2022-10-09T01:38:46.111Z,5.28
2022-10-09T01:43:50.903Z,5.43
2022-10-09T01:49:01.844Z,5.45
2022-10-09T01:54:10.206Z,5.18
2022-10-09T01:59:18.802Z,7.55
2022-10-09T02:04:23.452Z,7.13
2022-10-09T02:09:26.986Z,6.78
2022-10-09T02:14:31.815Z,6.78
2022-10-09T02:19:41.103Z,8.07
2022-10-09T02:24:45.233Z,8.00
2022-10-09T02:29:50.999Z,8.48
2022-10-09T02:34:54.721Z,9.68
2022-10-09T02:39:58.200Z,8.77
2022-10-09T02:45:02.996Z,8.77
2022-10-09T02:50:07.606Z,8.35
2022-10-09T02:55:11.584Z,9.50
2022-10-09T03:00:16.975Z,7.78
2022-10-09T03:05:21.082Z,8.02
2022-10-09T03:10:24.706Z,8.30
2022-10-09T03:15:29.566Z,7.43
2022-10-09T03:20:33.423Z,7.97
2022-10-09T03:25:36.819Z,7.90
2022-10-09T03:30:43.252Z,8.05
2022-10-09T03:35:47.172Z,8.15
2022-10-09T03:40:50.977Z,8.00
2022-10-09T03:46:00.345Z,8.35
2022-10-09T03:51:04.804Z,8.90
2022-10-09T03:56:08.343Z,8.95
2022-10-09T04:01:13.379Z,7.90
2022-10-09T04:06:17.385Z,6.47
2022-10-09T04:11:20.801Z,6.53
2022-10-09T04:16:25.643Z,8.07
2022-10-09T04:21:29.767Z,7.65
2022-10-09T04:26:33.157Z,8.65
2022-10-09T04:31:37.968Z,7.32
2022-10-09T04:36:41.417Z,7.15
2022-10-09T04:41:44.766Z,6.93
2022-10-09T04:46:51.402Z,7.20
2022-10-09T04:51:54.841Z,7.30
2022-10-09T04:56:58.706Z,7.38
2022-10-09T05:02:03.829Z,9.20
2022-10-09T05:07:07.286Z,7.53
2022-10-09T05:12:10.590Z,8.48
2022-10-09T05:17:17.899Z,8.27
2022-10-09T05:22:23.090Z,9.37
2022-10-09T05:27:26.450Z,10.32
2022-10-09T05:32:31.270Z,11.20
2022-10-09T05:37:34.800Z,12.27
2022-10-09T05:42:38.180Z,12.63
2022-10-09T05:47:43.077Z,12.00
2022-10-09T05:52:46.652Z,10.68
2022-10-09T05:57:50.728Z,12.90
2022-10-09T06:02:55.632Z,12.10
2022-10-09T06:07:59.017Z,13.50
2022-10-09T06:13:04.727Z,10.38
2022-10-09T06:18:09.526Z,12.55
2022-10-09T06:23:12.895Z,12.90
2022-10-09T06:28:18.652Z,18.65
2022-10-09T06:33:23.451Z,20.38
2022-10-09T06:38:26.921Z,16.30
2022-10-09T06:43:30.449Z,13.90
2022-10-09T06:48:42.445Z,10.98
2022-10-09T06:53:50.071Z,9.82
2022-10-09T06:58:54.287Z,11.98
2022-10-09T07:04:04.567Z,9.10
2022-10-09T07:09:14.899Z,15.73
2022-10-09T07:14:18.824Z,18.80
2022-10-09T07:19:23.673Z,21.55
2022-10-09T07:24:27.205Z,14.55
2022-10-09T07:29:30.716Z,16.38
2022-10-09T07:34:35.563Z,22.55
2022-10-09T07:39:42.891Z,26.90
2022-10-09T07:44:48.580Z,22.77
2022-10-09T07:49:53.565Z,20.52
2022-10-09T07:54:57.396Z,16.90
2022-10-09T08:00:00.876Z,19.58
2022-10-09T08:05:06.466Z,23.08
2022-10-09T08:10:10.692Z,23.25
2022-10-09T08:15:14.322Z,17.48
2022-10-09T08:20:35.687Z,16.60
2022-10-09T08:25:39.289Z,13.65
2022-10-09T08:30:43.154Z,13.52
2022-10-09T08:35:48.278Z,16.00
2022-10-09T08:40:58.408Z,10.98
2022-10-09T08:46:04.697Z,8.23
2022-10-09T08:51:16.912Z,9.00
2022-10-09T08:56:20.444Z,7.97
2022-10-09T09:01:32.595Z,11.73
2022-10-09T09:06:45.481Z,8.40
2022-10-09T09:11:54.078Z,7.63
2022-10-09T09:17:03.831Z,7.10
2022-10-09T09:22:13.500Z,7.30
2022-10-09T09:27:20.363Z,7.32
2022-10-09T09:32:27.431Z,8.27
2022-10-09T09:37:32.243Z,7.25
2022-10-09T09:42:35.755Z,4.18
2022-10-09T09:47:44.301Z,4.63
2022-10-09T09:52:56.678Z,6.28
2022-10-09T09:58:02.995Z,6.75
2022-10-09T10:03:13.547Z,6.95
2022-10-09T10:08:26.739Z,5.90
2022-10-09T10:13:35.838Z,4.47
2022-10-09T10:18:42.209Z,4.07
2022-10-09T10:23:52.873Z,2.90
2022-10-09T10:29:01.850Z,3.53
2022-10-09T10:34:10.388Z,6.40
2022-10-09T10:39:25.328Z,3.20
2022-10-09T10:44:41.751Z,2.30
2022-10-09T10:49:45.350Z,2.60
2022-10-09T10:54:55.138Z,3.85
2022-10-09T11:00:06.441Z,2.33
2022-10-09T11:05:32.242Z,3.53
2022-10-09T11:10:47.713Z,4.93
2022-10-09T11:16:02.316Z,14.30
2022-10-09T11:21:15.240Z,2.63
2022-10-09T11:26:28.063Z,1.70
2022-10-09T11:31:35.527Z,2.10
2022-10-09T11:36:42.172Z,2.90
2022-10-09T11:41:49.537Z,1.60
2022-10-09T11:47:01.943Z,1.85
2022-10-09T11:52:16.932Z,1.65
2022-10-09T11:57:30.179Z,1.60
2022-10-09T12:02:34.007Z,2.08
2022-10-09T12:13:00.207Z,2.30
2022-10-09T12:18:17.134Z,3.28
2022-10-09T12:23:45.003Z,1.70
2022-10-09T12:28:53.036Z,2.13
2022-10-09T12:34:03.415Z,2.30
2022-10-09T12:39:16.773Z,1.73
2022-10-09T12:44:30.391Z,1.30
2022-10-09T12:49:34.052Z,1.30
2022-10-09T12:54:43.913Z,2.13
2022-10-09T12:59:50.673Z,1.95
2022-10-09T13:04:59.773Z,1.50
2022-10-09T13:10:10.473Z,1.20
2022-10-09T13:15:32.967Z,1.95
2022-10-09T13:20:36.956Z,1.70
2022-10-09T13:25:43.594Z,1.23
2022-10-09T13:30:48.470Z,1.33
2022-10-09T13:35:52.118Z,1.42
2022-10-09T13:40:55.695Z,1.85
2022-10-09T13:46:00.472Z,1.45
2022-10-09T13:51:05.484Z,1.25
2022-10-09T13:56:09.703Z,1.60
2022-10-09T14:01:14.782Z,2.05
2022-10-09T14:06:18.233Z,2.63
2022-10-09T14:11:22.123Z,1.98
2022-10-09T14:16:27.832Z,3.50
2022-10-09T14:21:32.023Z,1.75
2022-10-09T14:26:35.915Z,2.30
2022-10-09T14:32:00.607Z,2.10
2022-10-09T14:37:41.619Z,1.52
2022-10-09T14:43:18.791Z,2.20
2022-10-09T14:48:57.634Z,2.05
2022-10-09T14:54:34.715Z,2.27
2022-10-09T15:00:11.667Z,2.95
2022-10-09T15:05:50.620Z,2.90
2022-10-09T15:11:27.641Z,2.57
2022-10-09T15:17:04.601Z,4.07
2022-10-09T15:22:42.621Z,2.47
2022-10-09T15:28:20.668Z,2.38
2022-10-09T15:33:57.629Z,2.00
2022-10-09T15:39:36.641Z,2.50
2022-10-09T15:45:13.613Z,2.00
2022-10-09T15:50:52.644Z,2.35
2022-10-09T15:56:39.665Z,3.10
2022-10-09T16:02:16.606Z,3.10
2022-10-09T16:07:53.630Z,2.90
2022-10-09T16:13:32.619Z,2.40
2022-10-09T16:19:12.633Z,2.90
2022-10-09T16:24:50.620Z,3.85
2022-10-09T16:30:30.625Z,4.20
2022-10-09T16:36:07.624Z,4.72
2022-10-09T16:41:44.610Z,4.28
2022-10-09T16:47:22.610Z,5.03
2022-10-09T16:53:00.626Z,7.47
2022-10-09T16:58:37.625Z,8.35
2022-10-09T17:04:16.613Z,11.75
2022-10-09T17:09:54.655Z,14.35
2022-10-09T17:15:31.626Z,14.52
2022-10-09T17:21:09.593Z,13.65
2022-10-09T17:26:46.603Z,14.63
2022-10-09T17:32:23.609Z,14.82
2022-10-09T17:38:03.625Z,15.68
2022-10-09T17:43:40.615Z,16.38
2022-10-09T17:49:18.607Z,14.35
2022-10-09T17:54:56.609Z,15.20
2022-10-09T18:00:33.616Z,13.85
2022-10-09T18:06:10.601Z,14.45
2022-10-09T18:11:48.614Z,18.02
2022-10-09T18:17:25.595Z,16.63
2022-10-09T18:23:02.629Z,19.45
2022-10-09T18:28:43.559Z,23.15
2022-10-09T18:34:23.628Z,20.60
2022-10-09T18:40:00.592Z,19.88
2022-10-09T18:45:40.627Z,21.67
2022-10-09T18:51:19.591Z,20.80
2022-10-09T18:56:56.614Z,19.47
2022-10-09T19:08:14.625Z,18.65
2022-10-09T19:13:51.594Z,19.42
2022-10-09T19:19:29.601Z,19.60
2022-10-09T19:25:06.605Z,20.67
2022-10-09T19:30:43.572Z,19.02
2022-10-09T19:36:24.598Z,19.10
2022-10-09T19:42:02.613Z,18.35
2022-10-09T19:47:39.580Z,15.27
2022-10-09T19:53:17.580Z,16.27
2022-10-09T19:59:04.600Z,15.52
2022-10-09T20:04:41.601Z,15.38
2022-10-09T20:10:21.611Z,15.90
2022-10-09T20:15:58.587Z,16.80
2022-10-09T20:21:35.574Z,18.23
2022-10-09T20:27:20.570Z,14.60
2022-10-09T20:32:59.324Z,13.00
2022-10-09T20:38:36.589Z,13.77
2022-10-09T20:44:18.582Z,14.77
2022-10-09T20:49:55.582Z,15.23
2022-10-09T20:55:32.568Z,15.30
2022-10-09T21:01:11.603Z,17.20
2022-10-09T21:06:48.607Z,16.37
2022-10-09T21:12:25.570Z,14.43
2022-10-09T21:18:03.569Z,15.63
2022-10-09T21:23:40.570Z,14.48
2022-10-09T21:29:24.633Z,15.20
2022-10-09T21:35:03.593Z,15.55
2022-10-09T21:40:40.574Z,17.00
2022-10-09T21:46:17.581Z,16.45
2022-10-09T21:51:55.694Z,14.60
2022-10-09T21:57:32.568Z,14.07
2022-10-09T22:03:09.596Z,12.25
2022-10-09T22:08:48.562Z,11.45
2022-10-09T22:14:25.589Z,10.23
2022-10-09T22:20:02.543Z,11.63
2022-10-09T22:25:40.563Z,12.25
2022-10-09T22:31:20.553Z,11.20
2022-10-09T22:36:57.562Z,11.52
2022-10-09T22:42:35.555Z,9.55
2022-10-09T22:48:14.590Z,11.60
2022-10-09T22:53:52.561Z,14.47
2022-10-09T22:59:32.534Z,15.55
2022-10-09T23:05:09.546Z,17.42
2022-10-09T23:10:46.544Z,16.48
2022-10-09T23:16:26.545Z,17.10
2022-10-09T23:22:03.546Z,16.15
2022-10-09T23:27:40.540Z,15.60
2022-10-09T23:33:18.547Z,18.50
2022-10-09T23:38:55.521Z,13.25
2022-10-09T23:44:32.538Z,10.40
2022-10-09T23:50:10.529Z,8.73
2022-10-09T23:55:47.554Z,10.55
